Yakima, Washington
Current Conditions -  °F | °C
As of 6:53 AM on Friday 31 Oct 2014 (Local Time) from KYKM Reporting Station
Light Rain Light Rain  
Wind Chill: 52°   Ceiling: 1900
Heat Index: 52°   Visibility: 4mi
Dew Point: 50°   Wind: 3mph
Humidity: 93%   Direction: 100°E
Pressure: 29.71"   Gusts: NA
Location:  46.6°N, 120.5°W
Report Text: KYKM 311353Z 10003KT 4SM -RA BR BKN019 OVC029 11/10 A2971 RMK AO2 SLP061 P0003 T01110100
Loading
Personal Weather Stations






























Interactive Weather Map New forecast layout! Learn more

10-Day Weather Forecast

Advertisements
Track Severe Weather on mobile